Hewitt, TX (76643)

4:19 PM CST on January 31, 2015 (GMT -0600)
Cedar Ridge | Change Station
CLOSE
Current Station
Personal Weather Station
Location: Robinson, TX
Elevation: 502 ft
Nearby Weather Stations

Elev 502 ft 31.46 °N, 97.12 °W | Updated 2 seconds ago

Overcast
Overcast
57.2 °F
Feels Like 57.2 °F
N
4.5
Wind Variable Wind from SE
Gusts 6.0 mph

Today
High -- | Low -- °F
--% Chance of Precip.
Yesterday
High -- | Low -- °F
Precip. -- in
7:22 AM 6:02 PM
Waxing Gibbous, 92% visible
Pressure 30.00 in
Visibility 6.0 miles
Clouds Mostly Cloudy 2700 ft
Overcast 3600 ft
Dew Point 56 °F
Humidity 94%
Rainfall 0.05 in
Snow Depth Not available.
UV 0 out of 12
Pollen 7.10 out of 12
Air Quality Not available.
Flu Activity Not available.
METAR KPWG 312215Z AUTO 14004KT 6SM BKN027 OVC036 13/09 A3000 RMK AO1 P0002

More Conditions Fewer Conditions

Pressure 30.00 in
Visibility 6.0 miles
Clouds Mostly Cloudy 2700 ft
Overcast 3600 ft
Dew Point 56 °F
Humidity 94%
Rainfall 0.05 in
Snow Depth Not available.
UV 0 out of 12
Pollen 7.10 out of 12
Air Quality Not available.
Flu Activity Not available.
METAR KPWG 312215Z AUTO 14004KT 6SM BKN027 OVC036 13/09 A3000 RMK AO1 P0002

More Conditions Fewer Conditions

Nowcast | as of 2:03 PM CST on January 31, 2015

Rain will continue to spread northeast across the region this afternoon through tonight. Most of the rain was occurring along and west of the I-35 corridor...but there were small patches occurring to the east. So far rain amounts have been light overall... but they should increase as the day wears on. Amounts through 6 PM...might average around one tenth of an inch from I-35 westward with more expected over night area wide. Otherwise...skies will remain cloudy with light southeast winds of 10 to 15 mph. Temperatures will remain in the mid 40s to around 50 where the rain is steady...but in the low to upper 50s elsewhere.

×

10-Day Weather Forecast

Almanac

Astronomy

Jan. 31, 2015 Rise Set
Actual Time
Civil Twilight
Nautical Twilight
Astronomical Twilight
Moon
Length of Visible Light
Length of Day
Tomorrow will be .
, % of the Moon is Illuminated

Today's Extremes

State Highs State Lows

Community

WunderPhotos

Upload Photos

1,792,222 photos uploaded!

WunderBlogs® & News

Nearby

Air Quality

  Air Quality AQ Index Pollutant
Not available.

Snow Depth

Station Depth Elevation

Earthquake Activity

City Distance Mag. Time & Date
Minimum magnitude displayed is 2.5.

Coastal Water Temperatures

Place Temperature

Nearby Weather Stations